Latest Weather Observations for Yamba

IDN60801

Issued at 5:32 am EDT Tuesday 9 February 2016 (issued every 30 minutes, with the page automatically refreshed every 10 minutes)

About weather observations | Map of weather stations | Latest weather observations for NSW | Other Formats
Station Details ID: 058012 Name: YAMBA PILOT STATION Lat: -29.43 Lon: 153.36 Height: 27.4 m
Data from the previous 72 hours. | See also: Recent months at Yamba
Date/Time
EDT
Temp
°C
App
Temp
°C
Dew
Point
Rel
Hum
%
Delta-T
°C
Wind Press
QNH
hPa
Press
MSL
hPa
Rain
since 9 am
mm
Dir
 
Spd
km/h
Gust
km/h
Spd
kts
Gust
kts
09/05:30am 22.7 22.2 18.7 78 2.5 S 19 28 10 15 1015.2 1015.0 0.0
09/05:00am 23.0 22.9 18.7 77 2.7 SSE 17 30 9 16 1015.0 1014.8 0.0
09/04:30am 23.7 21.7 18.4 72 3.3 SSE 26 39 14 21 1014.7 1014.5 0.0
09/04:00am 23.7 21.4 18.4 72 3.3 SSE 28 43 15 23 1014.6 1014.4 0.0
09/03:30am 24.2 23.0 19.3 74 3.1 SSE 24 39 13 21 1014.7 1014.5 0.0
09/03:00am 23.8 21.1 17.5 68 3.9 SSE 28 37 15 20 1014.8 1014.6 0.0
09/02:30am 23.8 22.1 18.2 71 3.5 SSE 24 39 13 21 1015.0 1014.8 0.0
09/02:00am 23.9 21.3 17.9 69 3.8 SSE 28 39 15 21 1015.2 1015.0 0.0
09/01:30am 24.0 21.3 18.4 71 3.5 SE 30 41 16 22 1015.7 1015.5 0.0
09/01:00am 23.9 21.0 18.8 73 3.2 SE 32 41 17 22 1015.8 1015.6 0.0
09/12:30am 23.9 20.4 17.9 69 3.8 SE 33 43 18 23 1016.2 1016.0 0.0
09/12:00am 23.9 20.1 17.2 66 4.1 SE 33 44 18 24 1016.5 1016.3 0.0
 
Date/Time
EDT
Temp
°C
App
Temp
°C
Dew
Point
Rel
Hum
%
Delta-T
°C
Wind Press
QNH
hPa
Press
MSL
hPa
Rain
since 9 am
mm
Dir
 
Spd
km/h
Gust
km/h
Spd
kts
Gust
kts
08/11:30pm 24.1 20.6 17.8 68 3.9 SE 33 48 18 26 1016.9 1016.7 0.0
08/11:00pm 24.3 21.3 18.7 71 3.5 SSE 32 44 17 24 1016.9 1016.7 0.0
08/10:30pm 24.4 21.6 18.3 69 3.8 SSE 30 43 16 23 1016.8 1016.6 0.0
08/10:00pm 24.2 21.4 18.2 69 3.8 SSE 30 41 16 22 1016.7 1016.5 0.0
08/09:55pm 24.4 21.5 18.8 71 3.6 SSE 32 50 17 27 1016.7 1016.5 0.0
08/09:30pm 24.2 21.4 18.2 69 3.8 SSE 30 43 16 23 1016.5 1016.3 0.0
08/09:00pm 24.2 21.1 18.4 70 3.7 SSE 32 44 17 24 1016.2 1016.0 0.0
08/08:30pm 24.2 21.2 18.6 71 3.5 SSE 32 48 17 26 1015.9 1015.7 0.0
08/08:11pm 24.2 22.0 18.8 72 3.4 SSE 28 50 15 27 1015.7 1015.5 0.0
08/08:00pm 24.2 22.4 18.8 72 3.4 SSE 26 35 14 19 1015.6 1015.4 0.0
08/07:30pm 24.3 22.5 18.7 71 3.6 SSE 26 39 14 21 1015.3 1015.1 0.0
08/07:00pm 24.6 23.0 19.2 72 3.5 SSE 26 39 14 21 1015.0 1014.8 0.0
08/06:30pm 24.9 23.3 19.1 70 3.7 SE 26 37 14 20 1014.7 1014.5 0.0
08/06:00pm 25.4 23.9 19.5 70 3.8 SSE 26 35 14 19 1014.5 1014.3 0.0
08/05:30pm 25.3 22.7 18.7 67 4.2 SSE 30 39 16 21 1014.6 1014.4 0.0
08/05:00pm 25.8 23.2 18.7 65 4.5 SSE 30 41 16 22 1014.7 1014.5 0.0
08/04:30pm 25.6 23.6 18.3 64 4.6 SSE 26 41 14 22 1014.8 1014.6 0.0
08/04:00pm 25.8 25.0 20.1 71 3.7 SSE 24 35 13 19 1014.7 1014.5 0.0
08/03:30pm 25.4 23.7 19.8 71 3.6 SSE 28 44 15 24 1014.9 1014.7 0.0
08/03:00pm 26.2 25.5 20.3 70 3.9 SSE 24 33 13 18 1015.1 1014.9 0.0
08/02:30pm 26.3 25.1 20.8 71 3.6 SSE 28 41 15 22 1015.4 1015.2 0.0
08/02:00pm 26.4 25.2 20.0 68 4.2 SSE 26 39 14 21 1015.5 1015.3 0.0
08/01:30pm 26.8 25.9 20.6 69 4.1 SSE 26 35 14 19 1015.8 1015.6 0.0
08/01:00pm 26.3 25.6 20.2 69 4.0 SSE 24 39 13 21 1016.0 1015.8 0.0
08/12:30pm 26.5 25.7 20.1 68 4.2 SSE 24 37 13 20 1016.3 1016.1 0.0
08/12:00pm 26.3 25.3 19.7 67 4.3 SSE 24 41 13 22 1016.5 1016.3 0.0
08/11:30am 25.8 24.9 19.0 66 4.4 SSE 22 35 12 19 1016.7 1016.5 0.0
08/11:00am 25.8 24.6 19.2 67 4.2 SSE 24 39 13 21 1016.7 1016.5 0.0
08/10:30am 25.8 25.0 19.2 67 4.2 SSE 22 33 12 18 1016.7 1016.5 0.0
08/10:00am 25.0 23.9 17.7 64 4.6 S 20 32 11 17 1016.5 1016.3 0.0
08/09:30am 25.1 24.8 18.3 66 4.3 SSE 17 24 9 13 1016.3 1016.1 0.0
08/09:00am 23.0 22.8 17.5 71 3.4 SSW 15 20 8 11 1016.2 1016.0 0.2
08/08:30am 21.8 21.9 16.5 72 3.2 SW 11 17 6 9 1016.2 1016.0 0.2
08/08:00am 20.9 21.0 16.5 76 2.7 SW 11 19 6 10 1016.0 1015.8 0.2
08/07:30am 19.7 20.1 16.3 81 2.0 SW 9 15 5 8 1015.8 1015.6 0.2
08/07:00am 18.8 19.1 16.0 84 1.7 SW 9 15 5 8 1015.7 1015.5 0.2
08/06:30am 18.5 19.1 16.7 89 1.1 SW 9 13 5 7 1015.4 1015.2 0.2
08/06:00am 18.4 19.3 16.6 89 1.1 SW 7 13 4 7 1015.1 1014.9 0.2
08/05:30am 18.4 19.2 16.4 88 1.2 SW 7 13 4 7 1015.0 1014.8 0.2
08/05:00am 18.6 19.5 16.6 88 1.2 SW 7 13 4 7 1015.0 1014.8 0.2
08/04:30am 18.7 19.6 16.7 88 1.2 WSW 7 13 4 7 1015.0 1014.8 0.2
08/04:00am 19.0 19.7 17.1 89 1.2 WSW 9 13 5 7 1015.1 1014.9 0.2
08/03:30am 19.5 20.7 17.3 87 1.3 W 7 11 4 6 1015.2 1015.0 0.2
08/03:00am 19.9 21.0 17.1 84 1.7 SW 7 15 4 8 1015.3 1015.1 0.2
08/02:30am 20.2 21.4 17.4 84 1.7 WSW 7 13 4 7 1015.6 1015.4 0.2
08/02:00am 20.7 21.9 17.3 81 2.1 WSW 7 13 4 7 1015.8 1015.6 0.2
08/01:30am 21.3 21.9 16.9 76 2.7 SW 9 15 5 8 1016.1 1015.9 0.2
08/01:00am 22.3 23.4 17.2 73 3.1 WSW 7 11 4 6 1016.2 1016.0 0.2
08/12:30am 23.6 22.3 16.9 66 4.1 SSE 19 30 10 16 1016.4 1016.2 0.2
08/12:00am 23.5 21.3 17.0 67 4.0 SSE 24 33 13 18 1016.3 1016.1 0.2
 
Date/Time
EDT
Temp
°C
App
Temp
°C
Dew
Point
Rel
Hum
%
Delta-T
°C
Wind Press
QNH
hPa
Press
MSL
hPa
Rain
since 9 am
mm
Dir
 
Spd
km/h
Gust
km/h
Spd
kts
Gust
kts
07/11:30pm 23.5 21.6 16.8 66 4.1 SSE 22 30 12 16 1016.3 1016.1 0.2
07/11:00pm 23.7 21.9 17.0 66 4.1 SSE 22 30 12 16 1016.4 1016.2 0.2
07/10:30pm 23.7 21.7 17.4 68 3.9 SE 24 32 13 17 1016.5 1016.3 0.2
07/10:00pm 23.7 21.4 17.7 69 3.7 SE 26 33 14 18 1016.3 1016.1 0.2
07/09:30pm 23.7 21.8 17.7 69 3.7 SE 24 33 13 18 1016.3 1016.1 0.2
07/09:00pm 23.7 21.9 17.9 70 3.6 SE 24 33 13 18 1015.9 1015.7 0.2
07/08:30pm 23.8 22.4 18.7 73 3.2 SE 24 32 13 17 1015.7 1015.5 0.2
07/08:00pm 23.8 21.5 18.4 72 3.4 SE 28 39 15 21 1015.4 1015.2 0.2
07/07:30pm 23.8 21.2 17.8 69 3.7 SE 28 37 15 20 1015.0 1014.8 0.2
07/07:00pm 23.9 21.1 17.4 67 4.0 SE 28 35 15 19 1014.6 1014.4 0.2
07/06:30pm 24.1 21.3 17.4 66 4.2 SE 28 39 15 21 1014.3 1014.1 0.2
07/06:00pm 24.7 22.1 17.7 65 4.4 SE 28 39 15 21 1014.2 1014.0 0.2
07/05:30pm 24.7 21.0 16.9 62 4.8 SE 32 39 17 21 1014.1 1013.9 0.2
07/05:00pm 25.3 22.7 17.7 62 4.8 SE 28 39 15 21 1014.0 1013.8 0.2
07/04:30pm 25.7 23.2 18.1 63 4.8 SE 28 41 15 22 1014.0 1013.8 0.2
07/04:00pm 25.2 22.1 17.4 62 4.9 SE 30 39 16 21 1014.1 1013.9 0.2
07/03:30pm 25.7 23.1 17.9 62 4.9 SE 28 37 15 20 1014.3 1014.1 0.2
07/03:00pm 25.7 22.6 17.6 61 5.1 SE 30 46 16 25 1014.4 1014.2 0.2
07/02:52pm 25.9 23.2 17.5 59 5.3 SE 28 46 15 25 1014.4 1014.2 0.2
07/02:30pm 25.8 22.5 18.0 62 4.9 SE 32 41 17 22 1014.5 1014.3 0.2
07/02:00pm 26.5 25.4 19.4 65 4.6 SSE 24 39 13 21 1014.5 1014.3 0.2
07/01:30pm 26.1 24.9 19.2 65 4.4 SSE 24 37 13 20 1014.6 1014.4 0.2
07/01:00pm 26.1 24.5 20.0 69 4.0 SSE 28 44 15 24 1014.6 1014.4 0.2
07/12:30pm 25.5 23.5 18.4 65 4.5 SSE 26 43 14 23 1015.0 1014.8 0.2
07/12:00pm 25.5 23.8 19.9 71 3.6 SSE 28 43 15 23 1015.2 1015.0 0.0
07/11:30am 24.6 22.8 18.8 70 3.7 SSE 26 39 14 21 1015.5 1015.3 0.0
07/11:00am 24.2 22.8 18.8 72 3.4 SSE 24 39 13 21 1015.5 1015.3 0.0
07/10:30am 23.1 22.5 18.4 75 3.0 S 19 32 10 17 1015.4 1015.2 0.0
07/10:00am 22.3 21.5 17.9 76 2.7 S 19 28 10 15 1015.3 1015.1 0.0
07/09:30am 21.6 20.5 17.4 77 2.6 SSW 19 30 10 16 1015.2 1015.0 0.0
07/09:00am 21.4 20.2 17.0 76 2.7 S 19 30 10 16 1015.3 1015.1 15.0
07/08:30am 21.5 19.6 16.7 74 2.9 S 22 32 12 17 1014.9 1014.7 15.0
07/08:00am 21.4 20.3 17.2 77 2.6 SSW 19 32 10 17 1015.0 1014.8 15.0
07/07:30am 21.5 20.5 17.5 78 2.5 SSW 19 28 10 15 1014.6 1014.4 15.0
07/07:00am 21.3 20.2 17.3 78 2.5 S 19 28 10 15 1013.9 1013.7 15.0
07/06:30am 21.2 19.9 17.2 78 2.5 S 20 35 11 19 1013.9 1013.7 15.0
07/06:00am 21.1 20.1 17.5 80 2.2 S 19 32 10 17 1013.5 1013.3 15.0
07/05:30am 21.2 20.7 17.8 81 2.1 S 17 26 9 14 1013.3 1013.1 15.0
07/05:00am 21.1 20.3 18.1 83 1.9 S 19 30 10 16 1013.4 1013.2 15.0
07/04:30am 21.0 20.5 18.6 86 1.5 S 19 30 10 16 1013.1 1012.9 15.0
07/04:00am 21.1 19.9 18.3 84 1.7 S 22 32 12 17 1013.0 1012.8 15.0
07/03:30am 21.0 20.3 18.6 86 1.5 S 20 30 11 16 1012.9 1012.7 15.0
07/03:00am 20.9 20.4 18.7 87 1.4 S 19 28 10 15 1012.9 1012.7 15.0
07/02:30am 21.3 21.3 18.9 86 1.5 S 17 24 9 13 1013.2 1013.0 15.0
07/02:00am 21.6 21.6 19.0 85 1.6 S 17 24 9 13 1013.6 1013.4 15.0
07/01:30am 22.7 22.1 18.5 77 2.6 S 19 35 10 19 1013.8 1013.6 15.0
07/01:00am 23.6 22.6 18.9 75 3.0 SSE 22 39 12 21 1013.8 1013.6 15.0
07/12:30am 23.7 22.3 18.8 74 3.1 SSE 24 35 13 19 1014.4 1014.2 15.0
07/12:00am 23.6 21.2 19.1 76 2.9 SSE 30 46 16 25 1014.4 1014.2 15.0
 
Date/Time
EDT
Temp
°C
App
Temp
°C
Dew
Point
Rel
Hum
%
Delta-T
°C
Wind Press
QNH
hPa
Press
MSL
hPa
Rain
since 9 am
mm
Dir
 
Spd
km/h
Gust
km/h
Spd
kts
Gust
kts
06/11:30pm 23.6 21.2 19.1 76 2.9 SSE 30 41 16 22 1014.5 1014.3 15.0
06/11:00pm 23.7 21.7 20.0 80 2.4 SE 30 39 16 21 1014.3 1014.1 15.0
06/10:30pm 23.6 21.8 20.3 82 2.1 SE 30 41 16 22 1014.4 1014.2 15.0
06/10:00pm 23.3 21.3 21.2 88 1.4 SE 33 43 18 23 1014.0 1013.8 15.0
06/09:30pm 21.9 21.1 21.6 98 0.2 SSE 28 39 15 21 1014.0 1013.8 15.0
06/09:00pm 21.6 20.6 21.3 98 0.2 SSE 28 44 15 24 1013.8 1013.6 13.6
06/08:30pm 21.6 19.9 21.3 98 0.2 SSE 32 46 17 25 1013.6 1013.4 12.6
06/08:00pm 22.4 21.9 22.1 98 0.2 SE 28 46 15 25 1013.4 1013.2 11.6
06/07:30pm 22.2 20.8 21.9 98 0.2 SE 32 44 17 24 1013.1 1012.9 10.4
06/07:11pm 21.8 20.9 21.5 98 0.2 SE 28 46 15 25 1012.9 1012.7 10.2
06/07:00pm 22.3 23.2 22.0 98 0.2 SSE 20 32 11 17 1012.8 1012.6 10.2
06/06:30pm 22.2 23.1 21.9 98 0.2 SSE 20 32 11 17 1012.3 1012.2 7.4
06/06:00pm 22.6 23.7 22.3 98 0.2 SSE 20 33 11 18 1011.8 1011.7 5.8
06/05:30pm 23.6 24.9 22.4 93 0.8 SSE 19 28 10 15 1011.9 1011.8 5.4
06/05:00pm 24.3 22.5 20.4 79 2.5 SE 30 39 16 21 1011.7 1011.6 5.2
06/04:30pm 24.5 23.1 21.2 82 2.2 SE 30 37 16 20 1011.5 1011.4 5.2
06/04:00pm 24.2 23.4 21.7 86 1.7 SE 28 37 15 20 1011.7 1011.6 5.2
06/03:30pm 24.7 23.7 21.2 81 2.3 SE 28 37 15 20 1011.5 1011.4 5.2
06/03:00pm 23.3 21.7 20.8 86 1.6 SE 30 41 16 22 1011.8 1011.7 5.2
06/02:30pm 24.1 23.2 21.4 85 1.8 SSE 28 44 15 24 1012.1 1012.0 5.2
06/02:00pm 24.2 24.5 22.3 89 1.3 SSE 24 33 13 18 1012.3 1012.2 5.2
06/01:30pm 23.4 23.7 22.9 97 0.3 SE 26 37 14 20 1012.5 1012.3 5.2
06/01:00pm 23.2 24.8 22.9 98 0.2 SSE 19 28 10 15 1012.9 1012.7 5.2
06/12:30pm 22.7 24.4 22.4 98 0.2 SSE 17 28 9 15 1013.4 1013.2 4.8
06/12:00pm 22.6 22.5 22.3 98 0.2 SSE 26 41 14 22 1013.3 1013.1 4.6
06/11:30am 22.6 23.7 22.3 98 0.2 S 20 32 11 17 1013.4 1013.2 4.6
06/11:00am 22.1 22.9 21.8 98 0.2 SSE 20 33 11 18 1013.5 1013.3 4.4
06/10:30am 22.2 23.3 21.9 98 0.2 SSE 19 32 10 17 1013.5 1013.3 3.4
06/10:00am 22.1 22.9 21.8 98 0.2 S 20 32 11 17 1013.4 1013.2 0.2
06/09:30am 22.6 23.3 22.3 98 0.2 SSE 22 37 12 20 1013.2 1013.0 0.2
06/09:00am 22.4 23.0 22.1 98 0.2 SSE 22 35 12 19 1013.0 1012.8 10.2
06/08:30am 22.5 22.8 22.2 98 0.2 SSE 24 32 13 17 1012.9 1012.7 10.0
06/08:00am 21.9 20.7 21.6 98 0.2 SSE 30 41 16 22 1012.7 1012.5 9.6
06/07:38am 22.6 21.1 22.1 97 0.3 SE 33 56 18 30 1012.3 1012.2 9.2
06/07:30am 22.4 20.3 20.5 89 1.2 SSE 32 43 17 23 1012.2 1012.1 9.0
06/07:00am 22.3 21.7 22.0 98 0.2 SSE 28 41 15 22 1011.8 1011.7 9.0
06/06:43am 22.4 19.7 21.2 93 0.8 SE 37 61 20 33 1011.6 1011.5 8.6
06/06:30am 22.5 20.9 21.5 94 0.7 SSE 32 44 17 24 1011.4 1011.3 8.6
06/06:00am 21.6 20.6 21.3 98 0.2 SSE 28 44 15 24 1011.1 1011.0 8.6

Other Formats:

Comma delimited format used in spreadsheet applications
http://www.bom.gov.au/fwo/IDN60801/IDN60801.94589.axf

JavaScript Object Notation format (JSON) in row-major order
http://www.bom.gov.au/fwo/IDN60801/IDN60801.94589.json